Time;durP1;ratioP1;P1;durP2;ratioP2;P2;SDS_P1;SDS_P2;PMS_P1;PMS_P2;Temp;Humidity;BMP_temperature;BMP_pressure;BME280_temperature;BME280_humidity;BME280_pressure;Samples;Min_cycle;Max_cycle;Signal;HPM_P1;HPM_P2
2023/01/04 00:03:57;;;;;;;4.53;1.27;;;7.50;99.90;;;;;;7305214;32;20112;-59
2023/01/04 00:07:59;;;;;;;5.62;1.37;;;7.50;99.90;;;;;;7306089;32;20111;-58
2023/01/04 00:12:00;;;;;;;4.60;1.10;;;7.60;99.90;;;;;;7307245;32;20242;-58
2023/01/04 00:16:06;;;;;;;4.35;1.33;;;7.60;99.90;;;;;;7291747;32;20170;-59
2023/01/04 00:20:09;;;;;;;5.55;1.20;;;7.60;99.90;;;;;;7297804;32;20138;-59
2023/01/04 00:24:14;;;;;;;4.80;1.23;;;7.70;99.90;;;;;;7291851;32;20211;-58
2023/01/04 00:28:15;;;;;;;4.18;1.33;;;7.70;99.90;;;;;;7295875;32;20661;-58
2023/01/04 00:32:18;;;;;;;5.55;1.20;;;7.80;99.90;;;;;;7295958;32;20139;-59
2023/01/04 00:36:20;;;;;;;5.53;1.30;;;7.70;99.90;;;;;;7294716;32;20179;-60
2023/01/04 00:40:22;;;;;;;6.45;0.90;;;7.80;99.90;;;;;;7295477;32;20579;-60
2023/01/04 00:44:24;;;;;;;11.07;1.27;;;7.80;99.90;;;;;;7295253;32;20550;-59
2023/01/04 00:48:27;;;;;;;4.43;1.00;;;7.90;99.90;;;;;;7295087;32;20181;-59
2023/01/04 00:52:29;;;;;;;9.27;1.52;;;7.90;99.90;;;;;;7297100;32;20544;-59
2023/01/04 00:56:31;;;;;;;4.20;1.00;;;7.80;99.90;;;;;;7293451;32;20277;-60
2023/01/04 01:00:34;;;;;;;6.37;1.12;;;7.80;99.90;;;;;;7279657;32;20118;-60
2023/01/04 01:04:35;;;;;;;4.53;1.08;;;7.70;99.90;;;;;;7292337;32;20128;-59
2023/01/04 01:08:37;;;;;;;7.28;1.35;;;7.60;99.90;;;;;;7300268;32;20138;-60
2023/01/04 01:12:39;;;;;;;4.82;1.35;;;7.60;99.90;;;;;;7295425;32;20127;-59
2023/01/04 01:16:40;;;;;;;6.82;1.15;;;7.50;99.90;;;;;;7298225;32;20224;-59
2023/01/04 01:20:56;;;;;;;4.80;1.17;;;7.50;99.90;;;;;;7298129;32;20172;-60
2023/01/04 01:24:58;;;;;;;6.00;1.62;;;7.40;99.90;;;;;;7297383;32;20467;-59
2023/01/04 01:29:00;;;;;;;6.62;1.52;;;7.40;99.90;;;;;;7291469;32;20108;-59
2023/01/04 01:33:01;;;;;;;8.35;1.50;;;7.40;99.90;;;;;;7294893;32;20103;-59
2023/01/04 01:37:03;;;;;;;5.82;1.10;;;7.40;99.90;;;;;;7294156;32;20513;-59
2023/01/04 01:41:06;;;;;;;7.53;1.85;;;7.40;99.90;;;;;;7294151;32;20193;-59
2023/01/04 01:45:26;;;;;;;6.80;1.35;;;7.40;99.90;;;;;;7294119;32;20135;-59
2023/01/04 01:49:36;;;;;;;5.75;1.33;;;7.40;99.90;;;;;;7295583;32;20155;-58
2023/01/04 01:53:42;;;;;;;6.68;1.35;;;7.40;99.90;;;;;;7293524;32;20575;-59
2023/01/04 01:57:47;;;;;;;7.03;1.55;;;7.30;99.90;;;;;;7294941;32;20180;-59
2023/01/04 02:01:49;;;;;;;5.22;1.30;;;7.30;99.90;;;;;;7291332;32;20126;-59
2023/01/04 02:05:53;;;;;;;4.70;1.50;;;7.40;99.90;;;;;;7297404;32;20504;-59
2023/01/04 02:09:56;;;;;;;9.02;1.50;;;7.40;99.90;;;;;;7294287;32;20137;-59
2023/01/04 02:18:27;;;;;;;8.25;2.03;;;7.40;99.90;;;;;;7291232;32;20565;-60
2023/01/04 02:22:48;;;;;;;6.87;1.90;;;7.30;99.90;;;;;;7291600;32;20133;-59
2023/01/04 02:26:52;;;;;;;4.80;1.42;;;7.30;99.90;;;;;;7290520;32;20175;-59
2023/01/04 02:31:12;;;;;;;5.72;1.62;;;7.30;99.90;;;;;;7293154;32;20130;-58
2023/01/04 02:35:28;;;;;;;6.07;1.80;;;7.30;99.90;;;;;;7288341;32;20698;-57
2023/01/04 02:39:52;;;;;;;8.85;2.58;;;7.30;99.90;;;;;;7293819;32;20413;-57
2023/01/04 02:53:20;;;;;;;7.05;2.30;;;7.30;99.90;;;;;;7293835;32;20306;-57
2023/01/04 02:57:46;;;;;;;7.47;2.33;;;7.40;99.90;;;;;;7298322;32;20195;-57
2023/01/04 03:06:40;;;;;;;8.25;2.00;;;7.50;99.90;;;;;;7294313;32;20139;-57
2023/01/04 03:10:45;;;;;;;8.82;2.78;;;7.50;99.90;;;;;;7299919;32;20231;-58
2023/01/04 03:14:52;;;;;;;4.65;2.03;;;7.50;99.90;;;;;;7300541;32;20134;-58
2023/01/04 03:18:56;;;;;;;9.75;2.70;;;7.50;99.90;;;;;;7296794;32;20115;-58
2023/01/04 03:36:58;;;;;;;8.25;1.92;;;7.70;99.90;;;;;;7294190;32;20111;-58
2023/01/04 03:50:03;;;;;;;3.17;1.10;;;7.90;99.90;;;;;;7298903;32;20112;-58
2023/01/04 03:54:10;;;;;;;4.50;1.08;;;7.90;99.90;;;;;;7296063;32;20133;-57
2023/01/04 03:58:13;;;;;;;3.58;1.20;;;8.00;99.90;;;;;;7293233;32;20120;-58
2023/01/04 04:02:18;;;;;;;3.25;1.20;;;8.00;99.90;;;;;;7283340;32;20199;-57
2023/01/04 04:10:40;;;;;;;3.33;1.00;;;8.10;99.90;;;;;;7295082;32;20285;-58
2023/01/04 04:14:42;;;;;;;2.87;0.60;;;8.20;99.90;;;;;;7298230;32;20112;-58
2023/01/04 04:18:44;;;;;;;0.57;0.30;;;8.30;99.90;;;;;;7293570;32;20504;-57
2023/01/04 04:22:45;;;;;;;1.67;0.40;;;8.50;99.90;;;;;;7296195;32;20115;-59
2023/01/04 04:26:47;;;;;;;0.13;0.10;;;8.70;99.90;;;;;;7297557;32;20187;-59
2023/01/04 04:30:49;;;;;;;1.10;0.30;;;8.80;99.90;;;;;;7294884;32;20172;-59
2023/01/04 04:34:51;;;;;;;4.03;0.45;;;8.90;99.90;;;;;;7297525;32;20222;-58
2023/01/04 04:38:52;;;;;;;0.55;0.10;;;9.00;99.90;;;;;;7296601;32;20134;-58
2023/01/04 04:42:54;;;;;;;0.80;0.22;;;9.00;99.90;;;;;;7293521;32;20107;-59
2023/01/04 04:46:56;;;;;;;1.80;0.40;;;9.10;99.90;;;;;;7297288;32;20146;-58
2023/01/04 04:50:58;;;;;;;2.90;0.30;;;9.10;99.90;;;;;;7291277;32;20319;-58
2023/01/04 04:54:59;;;;;;;1.27;0.17;;;9.20;99.90;;;;;;7295868;32;20123;-60
2023/01/04 04:59:02;;;;;;;1.55;0.30;;;9.20;99.90;;;;;;7294094;32;20203;-58
2023/01/04 05:03:04;;;;;;;0.73;0.20;;;9.20;99.90;;;;;;7294256;32;20494;-58
2023/01/04 05:07:06;;;;;;;2.47;0.30;;;9.30;99.90;;;;;;7293443;32;20159;-58
2023/01/04 05:11:13;;;;;;;;;;;9.40;99.90;;;;;;7293257;32;20345;-58
2023/01/04 05:15:15;;;;;;;1.08;0.30;;;9.40;99.90;;;;;;7295690;32;20044;-58
2023/01/04 05:19:17;;;;;;;0.47;0.20;;;9.40;99.90;;;;;;7295730;32;20442;-59
2023/01/04 05:23:19;;;;;;;0.52;0.20;;;9.50;99.90;;;;;;7281003;32;20138;-59
2023/01/04 05:27:21;;;;;;;1.75;0.20;;;9.50;99.90;;;;;;7301949;32;20494;-59
2023/01/04 05:31:24;;;;;;;0.45;0.20;;;9.50;99.90;;;;;;7300697;32;20509;-58
2023/01/04 05:35:26;;;;;;;0.90;0.20;;;9.60;99.90;;;;;;7304699;32;20491;-58
2023/01/04 05:39:29;;;;;;;0.80;0.17;;;9.70;99.90;;;;;;7304924;32;20128;-59
2023/01/04 05:43:31;;;;;;;0.98;0.30;;;9.70;99.90;;;;;;7301995;32;20572;-59
2023/01/04 05:47:33;;;;;;;0.62;0.10;;;9.70;99.90;;;;;;7302125;32;20128;-58
2023/01/04 05:51:35;;;;;;;0.40;0.20;;;9.80;99.90;;;;;;7295823;32;20210;-59
2023/01/04 05:55:36;;;;;;;0.45;0.17;;;9.80;99.90;;;;;;7300040;32;20266;-58
2023/01/04 05:59:38;;;;;;;0.52;0.13;;;9.90;99.90;;;;;;7297874;32;20154;-59
2023/01/04 06:03:42;;;;;;;0.30;0.10;;;9.90;99.90;;;;;;7303578;32;20133;-59
2023/01/04 06:07:45;;;;;;;2.78;0.28;;;10.00;99.90;;;;;;7301141;32;20190;-58
2023/01/04 06:11:46;;;;;;;0.62;0.30;;;10.00;99.90;;;;;;7297436;32;20327;-59
2023/01/04 06:15:48;;;;;;;1.10;0.20;;;10.00;99.90;;;;;;7297351;32;20477;-59
2023/01/04 06:19:50;;;;;;;0.50;0.30;;;10.00;99.90;;;;;;7301541;32;20570;-58
2023/01/04 06:23:52;;;;;;;0.95;0.30;;;10.00;99.90;;;;;;7302460;32;20210;-59
2023/01/04 06:27:54;;;;;;;1.10;0.20;;;10.00;99.90;;;;;;7297101;32;20479;-59
2023/01/04 06:31:55;;;;;;;1.02;0.37;;;10.10;99.90;;;;;;7300864;32;20142;-58
2023/01/04 06:35:57;;;;;;;1.37;0.30;;;10.10;99.90;;;;;;7286068;32;20619;-59
2023/01/04 06:39:59;;;;;;;1.15;0.30;;;10.20;99.90;;;;;;7293989;32;20136;-58
2023/01/04 06:44:01;;;;;;;0.43;0.20;;;10.20;99.90;;;;;;7296981;32;20111;-58
2023/01/04 06:48:03;;;;;;;0.32;0.15;;;10.30;99.90;;;;;;7299208;32;20182;-59
2023/01/04 06:52:09;;;;;;;1.12;0.20;;;10.30;99.90;;;;;;7293931;32;20151;-59
2023/01/04 06:56:11;;;;;;;2.92;0.20;;;10.30;99.90;;;;;;7296446;32;20207;-59
2023/01/04 07:00:14;;;;;;;0.47;0.20;;;10.40;99.90;;;;;;7287767;32;20125;-61
2023/01/04 07:04:15;;;;;;;0.47;0.15;;;10.30;99.90;;;;;;7296758;32;20108;-61
2023/01/04 07:08:17;;;;;;;0.45;0.13;;;10.40;99.90;;;;;;7298481;32;20142;-59
2023/01/04 07:12:19;;;;;;;0.55;0.20;;;10.40;99.90;;;;;;7297598;32;20180;-57
2023/01/04 07:16:20;;;;;;;1.25;0.20;;;10.40;99.90;;;;;;7297993;32;20174;-57
2023/01/04 07:20:22;;;;;;;1.65;0.30;;;10.50;99.90;;;;;;7298029;32;20230;-58
2023/01/04 07:24:24;;;;;;;1.48;0.30;;;10.50;99.90;;;;;;7295133;32;20199;-57
2023/01/04 07:32:52;;;;;;;0.40;0.10;;;10.60;99.90;;;;;;7292986;32;20224;-58
2023/01/04 07:36:54;;;;;;;0.30;0.13;;;10.50;99.90;;;;;;7297305;32;20112;-57
2023/01/04 07:40:56;;;;;;;0.77;0.20;;;10.60;99.90;;;;;;7297934;32;20416;-62
2023/01/04 07:44:58;;;;;;;1.87;0.30;;;10.60;99.90;;;;;;7290610;32;20522;-61
2023/01/04 07:49:00;;;;;;;0.50;0.20;;;10.80;99.90;;;;;;7296745;32;20501;-60
2023/01/04 07:53:01;;;;;;;2.87;0.20;;;10.80;99.90;;;;;;7297293;32;20159;-59
2023/01/04 07:57:03;;;;;;;0.55;0.10;;;10.80;99.90;;;;;;7305038;32;20158;-59
2023/01/04 08:01:10;;;;;;;2.50;0.30;;;10.80;99.90;;;;;;7304268;32;20123;-58
2023/01/04 08:05:12;;;;;;;;;;;10.80;99.90;;;;;;7305237;32;20284;-59
2023/01/04 08:09:14;;;;;;;0.85;0.40;;;10.80;99.90;;;;;;7296375;32;20108;-59
2023/01/04 08:13:15;;;;;;;0.60;0.30;;;10.90;99.90;;;;;;7285159;32;21310;-60
2023/01/04 08:17:17;;;;;;;1.33;0.40;;;10.90;99.90;;;;;;7295423;32;20108;-61
2023/01/04 08:21:19;;;;;;;1.20;0.30;;;10.90;99.90;;;;;;7293907;32;20238;-59
2023/01/04 08:25:21;;;;;;;2.83;0.20;;;10.90;99.90;;;;;;7292612;32;20104;-60
2023/01/04 08:29:23;;;;;;;0.40;0.20;;;11.00;99.90;;;;;;7304887;32;20525;-60
2023/01/04 08:33:31;;;;;;;2.28;0.30;;;11.00;99.90;;;;;;7306149;32;20674;-61
2023/01/04 08:37:34;;;;;;;0.95;0.13;;;11.00;99.90;;;;;;7297668;32;20136;-60
2023/01/04 08:41:49;;;;;;;1.17;0.20;;;11.10;99.90;;;;;;7296834;32;20247;-60
2023/01/04 08:46:06;;;;;;;0.82;0.30;;;11.10;99.90;;;;;;7294957;32;20569;-60
2023/01/04 08:50:08;;;;;;;0.37;0.20;;;11.10;99.90;;;;;;7302944;32;20303;-61
2023/01/04 08:54:12;;;;;;;0.95;0.20;;;11.10;99.90;;;;;;7299029;32;20218;-60
2023/01/04 08:58:14;;;;;;;0.85;0.30;;;11.10;99.90;;;;;;7290031;32;20243;-61
2023/01/04 09:02:22;;;;;;;0.50;0.30;;;11.10;99.90;;;;;;7274454;32;20234;-60
2023/01/04 09:06:24;;;;;;;3.83;0.30;;;11.20;99.90;;;;;;7280994;32;20100;-60
2023/01/04 09:10:26;;;;;;;1.67;0.20;;;11.10;99.90;;;;;;7279921;32;20678;-60
2023/01/04 09:14:27;;;;;;;3.03;0.30;;;11.20;99.90;;;;;;7295873;32;20208;-60
2023/01/04 09:18:30;;;;;;;2.37;0.30;;;11.20;99.90;;;;;;7294730;32;20108;-60
2023/01/04 09:22:33;;;;;;;1.40;0.30;;;11.20;99.90;;;;;;7289529;32;20814;-61
2023/01/04 09:26:35;;;;;;;1.02;0.30;;;11.20;99.90;;;;;;7300374;32;20757;-60
2023/01/04 09:30:37;;;;;;;1.70;0.30;;;11.20;99.90;;;;;;7270427;32;20146;-60
2023/01/04 09:34:38;;;;;;;1.90;0.30;;;11.20;99.90;;;;;;7292998;32;20119;-60
2023/01/04 09:38:41;;;;;;;0.77;0.28;;;11.20;99.90;;;;;;7292110;32;20181;-60
2023/01/04 09:42:44;;;;;;;1.33;0.30;;;11.30;99.90;;;;;;7290063;32;20657;-60
2023/01/04 09:47:03;;;;;;;0.45;0.25;;;11.40;99.90;;;;;;7284770;32;20112;-60
2023/01/04 09:51:12;;;;;;;1.30;0.20;;;11.60;99.90;;;;;;7296170;32;20116;-62
2023/01/04 09:55:26;;;;;;;1.48;0.20;;;11.60;99.90;;;;;;7290828;32;20682;-62
2023/01/04 09:59:41;;;;;;;0.80;0.28;;;11.60;99.90;;;;;;7306942;32;20267;-63
2023/01/04 10:04:21;;;;;;;2.47;0.50;;;11.50;99.90;;;;;;7301080;32;20258;-62
2023/01/04 10:08:24;;;;;;;1.00;0.30;;;11.40;99.90;;;;;;7293768;32;20538;-64
2023/01/04 10:12:32;;;;;;;1.73;0.30;;;11.40;99.90;;;;;;7292142;32;20112;-63
2023/01/04 10:16:42;;;;;;;0.47;0.20;;;11.40;99.90;;;;;;7291205;32;20222;-63
2023/01/04 10:21:10;;;;;;;1.15;0.35;;;11.30;99.90;;;;;;7296417;32;20246;-61
2023/01/04 10:25:41;;;;;;;2.47;0.20;;;11.30;99.90;;;;;;7296128;32;21063;-61
2023/01/04 10:29:46;;;;;;;1.48;0.40;;;11.20;99.90;;;;;;7276907;32;20655;-61
2023/01/04 10:33:49;;;;;;;1.42;0.37;;;11.20;99.90;;;;;;7287337;32;20204;-62
2023/01/04 10:38:03;;;;;;;2.05;0.60;;;11.10;99.90;;;;;;7296681;32;20111;-61
2023/01/04 10:42:39;;;;;;;0.73;0.30;;;10.90;99.90;;;;;;7306498;32;20117;-61
2023/01/04 10:46:59;;;;;;;2.33;0.40;;;10.90;99.90;;;;;;7305689;32;20108;-61
2023/01/04 10:51:03;;;;;;;1.77;0.50;;;10.90;99.90;;;;;;7305894;32;20531;-61
2023/01/04 10:55:40;;;;;;;2.10;0.70;;;10.90;99.90;;;;;;7304551;32;20131;-61
2023/01/04 11:00:16;;;;;;;3.40;0.50;;;10.90;99.90;;;;;;7305622;32;20207;-61
2023/01/04 11:04:22;;;;;;;1.92;0.50;;;10.90;99.90;;;;;;7304079;32;20116;-61
2023/01/04 11:08:48;;;;;;;1.65;0.57;;;10.90;99.90;;;;;;7300423;32;20403;-61
2023/01/04 11:12:51;;;;;;;1.37;0.50;;;10.90;99.90;;;;;;7304962;32;20519;-61
2023/01/04 11:16:58;;;;;;;1.50;0.60;;;11.00;99.90;;;;;;7306960;32;20112;-61
2023/01/04 11:21:05;;;;;;;2.08;0.57;;;11.00;99.90;;;;;;7299651;32;20119;-60
2023/01/04 11:25:12;;;;;;;2.83;0.82;;;11.00;99.90;;;;;;7296086;32;20115;-61
2023/01/04 11:29:57;;;;;;;3.08;0.77;;;11.10;99.90;;;;;;7289137;32;20158;-61
2023/01/04 11:34:00;;;;;;;2.83;0.50;;;11.10;99.90;;;;;;7297523;32;20103;-61
2023/01/04 11:38:23;;;;;;;0.95;0.40;;;11.20;99.90;;;;;;7291680;32;20811;-61
2023/01/04 11:42:25;;;;;;;2.83;0.62;;;11.20;99.90;;;;;;7292751;32;20305;-62
2023/01/04 11:46:28;;;;;;;1.02;0.45;;;11.30;99.90;;;;;;7291258;32;20218;-62
2023/01/04 11:50:45;;;;;;;0.85;0.50;;;11.20;99.90;;;;;;7297059;32;20143;-61
2023/01/04 11:54:46;;;;;;;0.73;0.30;;;11.30;99.90;;;;;;7294661;32;20155;-62
2023/01/04 11:59:13;;;;;;;2.75;0.50;;;11.30;99.90;;;;;;7295578;32;20224;-61
2023/01/04 12:03:36;;;;;;;0.85;0.40;;;11.30;99.90;;;;;;7291943;32;20180;-61
2023/01/04 12:07:40;;;;;;;1.62;0.30;;;11.30;99.90;;;;;;7290660;32;20522;-61
2023/01/04 12:11:49;;;;;;;0.85;0.57;;;11.30;99.90;;;;;;7298298;32;20211;-62
2023/01/04 12:16:03;;;;;;;2.62;0.45;;;11.30;99.90;;;;;;7295778;32;20142;-61
2023/01/04 12:20:14;;;;;;;1.62;0.60;;;11.40;99.90;;;;;;7297119;32;20176;-61
2023/01/04 12:24:27;;;;;;;3.70;0.50;;;11.30;99.90;;;;;;7281097;32;20607;-61
2023/01/04 12:28:41;;;;;;;3.00;0.60;;;11.20;99.90;;;;;;7284470;32;20130;-62
2023/01/04 12:32:44;;;;;;;2.40;0.37;;;11.20;99.90;;;;;;7291918;32;20194;-61
2023/01/04 12:36:49;;;;;;;0.60;0.30;;;11.10;99.90;;;;;;7292152;32;20246;-62
2023/01/04 12:40:52;;;;;;;1.10;0.50;;;11.10;99.90;;;;;;7290970;32;20131;-60
2023/01/04 12:44:53;;;;;;;1.05;0.50;;;11.10;99.90;;;;;;7292556;32;20254;-60
2023/01/04 12:49:04;;;;;;;1.77;0.37;;;11.10;99.90;;;;;;7294932;32;20112;-60
2023/01/04 12:53:28;;;;;;;0.90;0.40;;;11.10;99.90;;;;;;7293898;32;20816;-61
2023/01/04 12:57:36;;;;;;;1.20;0.40;;;11.10;99.90;;;;;;7293026;32;20218;-60
2023/01/04 13:01:52;;;;;;;0.62;0.30;;;11.10;99.90;;;;;;7285945;32;20112;-62
2023/01/04 13:05:59;;;;;;;0.62;0.30;;;11.20;99.90;;;;;;7292463;32;20108;-62
2023/01/04 13:10:32;;;;;;;0.28;0.10;;;11.20;99.90;;;;;;7298570;32;20826;-62
2023/01/04 13:14:52;;;;;;;1.05;0.30;;;11.20;99.90;;;;;;7295396;32;20254;-61
2023/01/04 13:18:59;;;;;;;0.50;0.30;;;11.30;99.90;;;;;;7291121;32;20423;-61
2023/01/04 13:23:01;;;;;;;0.93;0.30;;;11.30;99.90;;;;;;7292370;32;20385;-61
2023/01/04 13:27:27;;;;;;;4.45;0.30;;;11.40;99.90;;;;;;7291802;32;20207;-62
2023/01/04 13:31:29;;;;;;;1.77;0.20;;;11.70;99.90;;;;;;7292677;32;20753;-63
2023/01/04 13:35:31;;;;;;;1.40;0.30;;;11.90;99.90;;;;;;7292966;32;20175;-60
2023/01/04 13:39:54;;;;;;;1.65;0.20;;;11.80;99.90;;;;;;7301014;32;20221;-60
2023/01/04 13:44:14;;;;;;;0.60;0.20;;;11.60;99.90;;;;;;7286315;32;20120;-61
2023/01/04 13:48:19;;;;;;;0.47;0.20;;;11.60;99.90;;;;;;7291471;32;20307;-60
2023/01/04 13:52:26;;;;;;;1.30;0.30;;;11.70;99.90;;;;;;7294903;32;20527;-60
2023/01/04 13:56:48;;;;;;;1.00;0.30;;;11.60;99.90;;;;;;7295227;32;20533;-60
2023/01/04 14:01:05;;;;;;;0.62;0.20;;;11.70;99.90;;;;;;7296194;32;20338;-60
2023/01/04 14:05:15;;;;;;;1.08;0.68;;;11.70;99.90;;;;;;7287820;32;20652;-61
2023/01/04 14:09:34;;;;;;;0.50;0.35;;;11.70;99.90;;;;;;7290887;32;20108;-60
2023/01/04 14:13:35;;;;;;;0.40;0.20;;;11.80;99.90;;;;;;7286474;32;20210;-61
2023/01/04 14:17:58;;;;;;;0.68;0.20;;;11.80;99.90;;;;;;7291367;32;20111;-61
2023/01/04 14:21:59;;;;;;;1.48;0.20;;;11.80;99.90;;;;;;7291706;32;20112;-60
2023/01/04 14:26:01;;;;;;;0.52;0.30;;;11.80;99.90;;;;;;7296685;32;20134;-60
2023/01/04 14:30:18;;;;;;;0.75;0.50;;;11.80;99.90;;;;;;7294129;32;20479;-60
2023/01/04 14:34:20;;;;;;;0.35;0.30;;;11.80;99.90;;;;;;7283986;32;20116;-61
2023/01/04 14:38:22;;;;;;;0.50;0.30;;;11.80;99.90;;;;;;7302063;32;20232;-61
2023/01/04 14:42:26;;;;;;;0.40;0.35;;;11.80;99.90;;;;;;7297933;32;20141;-61
2023/01/04 14:46:30;;;;;;;1.83;0.75;;;11.80;99.90;;;;;;7304262;32;20112;-61
2023/01/04 14:50:32;;;;;;;3.37;1.15;;;11.90;99.90;;;;;;7306031;32;20209;-61
2023/01/04 14:54:34;;;;;;;1.58;1.00;;;11.80;99.90;;;;;;7307612;32;20330;-60
2023/01/04 14:58:35;;;;;;;0.88;0.50;;;11.80;99.90;;;;;;7307775;32;20158;-60
2023/01/04 15:02:37;;;;;;;1.65;0.70;;;11.70;99.90;;;;;;7303082;32;20104;-60
2023/01/04 15:06:51;;;;;;;1.02;0.68;;;11.80;99.90;;;;;;7302696;32;20130;-60
2023/01/04 15:10:53;;;;;;;1.48;0.40;;;11.80;99.90;;;;;;7304623;32;20108;-60
2023/01/04 15:15:00;;;;;;;0.93;0.45;;;11.80;99.90;;;;;;7296314;32;20246;-59
2023/01/04 15:19:02;;;;;;;1.23;0.50;;;11.80;99.90;;;;;;7278441;32;20755;-60
2023/01/04 15:23:04;;;;;;;1.10;0.47;;;11.90;99.90;;;;;;7295824;32;20180;-60
2023/01/04 15:27:06;;;;;;;3.05;0.90;;;11.90;99.90;;;;;;7301123;32;20119;-60
2023/01/04 15:31:12;;;;;;;1.25;0.70;;;11.90;99.90;;;;;;7304139;32;20263;-60
2023/01/04 15:35:15;;;;;;;0.70;0.50;;;12.00;99.90;;;;;;7295817;32;20152;-60
2023/01/04 15:39:17;;;;;;;2.15;0.80;;;12.00;99.90;;;;;;7303474;32;20126;-60
2023/01/04 15:43:19;;;;;;;2.35;0.70;;;12.00;99.90;;;;;;7294157;32;20111;-60
2023/01/04 15:47:21;;;;;;;1.62;0.77;;;12.00;99.90;;;;;;7282434;32;20923;-60
2023/01/04 15:51:23;;;;;;;2.35;0.82;;;12.10;99.90;;;;;;7290793;32;20203;-59
2023/01/04 15:55:25;;;;;;;2.25;0.90;;;12.10;99.90;;;;;;7311233;32;20608;-59
2023/01/04 15:59:34;;;;;;;3.87;0.80;;;12.20;99.90;;;;;;7300600;32;20682;-59
2023/01/04 16:03:36;;;;;;;3.50;0.60;;;12.20;99.90;;;;;;7303730;32;20560;-61
2023/01/04 16:07:38;;;;;;;3.65;0.65;;;12.20;99.90;;;;;;7298215;32;20597;-61
2023/01/04 16:12:40;;;;;;;2.80;0.70;;;12.20;99.90;;;;;;7302074;32;20533;-60
2023/01/04 16:16:02;;;;;;;6.78;1.23;;;12.20;99.90;;;;;;7293415;32;20256;-60
2023/01/04 16:20:05;;;;;;;5.05;1.08;;;12.00;99.90;;;;;;7297829;32;20919;-60
2023/01/04 16:24:09;;;;;;;7.90;1.42;;;11.80;99.90;;;;;;7295405;32;20138;-61
2023/01/04 16:28:31;;;;;;;5.32;1.33;;;11.60;99.90;;;;;;7299242;32;20272;-60
2023/01/04 16:32:33;;;;;;;7.05;1.17;;;11.50;99.90;;;;;;7301044;32;20196;-60
2023/01/04 16:36:35;;;;;;;6.85;1.25;;;11.50;99.90;;;;;;7299517;32;20133;-60
2023/01/04 16:40:37;;;;;;;7.07;1.70;;;11.40;99.90;;;;;;7303167;32;20194;-60
2023/01/04 16:44:40;;;;;;;8.23;1.42;;;11.50;99.90;;;;;;7298514;32;20142;-60
2023/01/04 16:48:42;;;;;;;3.03;1.30;;;11.40;99.90;;;;;;7308351;32;20306;-60
2023/01/04 16:52:44;;;;;;;3.17;1.10;;;11.40;99.90;;;;;;7298329;32;20242;-60
2023/01/04 16:56:48;;;;;;;3.60;1.40;;;11.50;99.90;;;;;;7301540;32;20108;-60
2023/01/04 17:00:49;;;;;;;3.97;1.60;;;11.50;99.90;;;;;;7302377;32;20307;-60
2023/01/04 17:04:58;;;;;;;2.10;1.30;;;11.50;99.90;;;;;;7298186;32;20678;-60
2023/01/04 17:09:02;;;;;;;2.72;1.00;;;11.50;99.90;;;;;;7300049;32;20206;-60
2023/01/04 17:13:05;;;;;;;2.67;1.30;;;11.50;99.90;;;;;;7292719;32;20215;-60
2023/01/04 17:17:07;;;;;;;3.55;1.08;;;11.60;99.90;;;;;;7298167;32;20165;-61
2023/01/04 17:21:13;;;;;;;2.47;1.00;;;11.60;99.90;;;;;;7305412;32;20209;-60
2023/01/04 17:25:34;;;;;;;3.35;1.00;;;11.60;99.90;;;;;;7300564;32;20111;-60
2023/01/04 17:29:36;;;;;;;3.55;1.10;;;11.60;99.90;;;;;;7300424;32;20112;-60
2023/01/04 17:33:38;;;;;;;7.47;1.48;;;11.60;99.90;;;;;;7301927;32;20226;-61
2023/01/04 17:37:39;;;;;;;4.60;1.15;;;11.60;99.90;;;;;;7303319;32;20515;-61
2023/01/04 17:41:41;;;;;;;8.70;1.00;;;11.60;99.90;;;;;;7291285;32;20356;-61
2023/01/04 17:45:44;;;;;;;4.53;1.12;;;11.60;99.90;;;;;;7302335;32;20439;-61
2023/01/04 17:49:46;;;;;;;5.20;1.00;;;11.60;99.90;;;;;;7287749;32;20252;-61
2023/01/04 17:53:56;;;;;;;3.53;1.00;;;11.50;99.90;;;;;;7289435;32;20246;-62
2023/01/04 17:57:58;;;;;;;6.87;1.20;;;11.50;99.90;;;;;;7288410;32;20126;-61
2023/01/04 18:01:59;;;;;;;9.13;1.80;;;11.50;99.90;;;;;;7290291;32;20112;-61
2023/01/04 18:06:01;;;;;;;8.80;1.90;;;11.50;99.90;;;;;;7290796;32;20199;-60
2023/01/04 18:10:23;;;;;;;11.57;1.73;;;11.60;99.90;;;;;;7294394;32;20190;-61
2023/01/04 18:14:45;;;;;;;12.70;2.50;;;11.50;99.90;;;;;;7293810;32;20111;-60
2023/01/04 18:18:46;;;;;;;12.48;2.45;;;11.60;99.90;;;;;;7303827;32;20188;-60
2023/01/04 18:22:48;;;;;;;13.93;2.33;;;11.60;99.90;;;;;;7297215;32;20227;-60
2023/01/04 18:26:51;;;;;;;17.05;2.60;;;11.60;99.90;;;;;;7308609;32;20129;-61
2023/01/04 18:31:15;;;;;;;17.70;3.17;;;11.50;99.90;;;;;;7294695;32;20221;-61
2023/01/04 18:35:17;;;;;;;17.45;3.22;;;11.60;99.90;;;;;;7300412;32;20214;-61
2023/01/04 18:39:19;;;;;;;13.77;2.58;;;11.70;99.90;;;;;;7302033;32;20138;-59
2023/01/04 18:43:20;;;;;;;15.95;2.95;;;11.60;99.90;;;;;;7295076;32;20707;-58
2023/01/04 18:47:22;;;;;;;18.40;2.90;;;11.60;99.90;;;;;;7291107;32;20134;-60
2023/01/04 18:51:27;;;;;;;17.45;2.95;;;11.60;99.90;;;;;;7298174;32;20226;-60
2023/01/04 18:55:28;;;;;;;19.20;2.70;;;11.70;99.90;;;;;;7301350;32;20166;-60
2023/01/04 18:59:30;;;;;;;21.42;3.65;;;11.70;99.90;;;;;;7298707;32;20222;-60
2023/01/04 19:03:36;;;;;;;18.65;3.12;;;11.70;99.90;;;;;;7302211;32;20143;-60
2023/01/04 19:07:38;;;;;;;17.92;3.08;;;11.70;99.90;;;;;;7295160;32;20142;-60
2023/01/04 19:11:42;;;;;;;13.95;3.37;;;11.70;99.90;;;;;;7270396;32;20195;-60
2023/01/04 19:15:44;;;;;;;22.52;3.55;;;11.70;99.90;;;;;;7301618;32;20230;-60
2023/01/04 19:19:48;;;;;;;19.58;3.70;;;11.70;99.90;;;;;;7275189;32;20104;-60
2023/01/04 19:23:51;;;;;;;23.05;3.70;;;11.70;99.90;;;;;;7304256;32;20257;-60
2023/01/04 19:27:53;;;;;;;19.67;3.70;;;11.80;99.90;;;;;;7297928;32;20116;-60
2023/01/04 19:31:54;;;;;;;19.62;3.28;;;11.70;99.90;;;;;;7308091;32;20277;-58
2023/01/04 19:35:56;;;;;;;17.30;2.90;;;11.80;99.90;;;;;;7297448;32;20104;-60
2023/01/04 19:39:58;;;;;;;27.27;4.70;;;11.70;99.90;;;;;;7297051;32;20104;-60
2023/01/04 19:44:05;;;;;;;16.23;2.95;;;11.80;99.90;;;;;;7276325;32;20183;-60
2023/01/04 19:48:06;;;;;;;;;;;11.80;99.90;;;;;;7297402;32;20761;-59
2023/01/04 19:52:08;;;;;;;22.83;3.65;;;11.80;99.90;;;;;;7290954;32;21688;-60
2023/01/04 19:56:13;;;;;;;25.48;3.47;;;11.80;99.90;;;;;;7299820;32;20720;-59
2023/01/04 20:00:15;;;;;;;17.55;3.45;;;11.80;99.90;;;;;;7290796;32;20203;-60
2023/01/04 20:04:17;;;;;;;22.42;3.83;;;11.80;99.90;;;;;;7298010;32;20107;-62
2023/01/04 20:08:19;;;;;;;24.15;3.90;;;11.80;99.90;;;;;;7294967;32;20119;-60
2023/01/04 20:12:21;;;;;;;22.92;4.12;;;11.80;99.90;;;;;;7296639;32;20561;-60
2023/01/04 20:16:22;;;;;;;20.35;3.58;;;11.80;99.90;;;;;;7298338;32;20222;-58
2023/01/04 20:20:24;;;;;;;17.58;3.80;;;11.80;99.90;;;;;;7283229;32;20990;-59
2023/01/04 20:24:26;;;;;;;26.37;4.20;;;11.80;99.90;;;;;;7297937;32;20138;-60
2023/01/04 20:28:27;;;;;;;26.50;4.00;;;11.80;99.90;;;;;;7295069;32;20179;-60
2023/01/04 20:32:29;;;;;;;16.85;3.30;;;11.80;99.90;;;;;;7294439;32;20266;-60
2023/01/04 20:36:31;;;;;;;23.38;3.55;;;11.80;99.90;;;;;;7301063;32;20247;-60
2023/01/04 20:40:34;;;;;;;20.77;3.08;;;11.80;99.90;;;;;;7292664;32;20198;-60
2023/01/04 20:44:37;;;;;;;30.25;4.20;;;11.80;99.90;;;;;;7298843;32;20120;-60
2023/01/04 20:48:40;;;;;;;26.50;3.92;;;11.80;99.90;;;;;;7298170;32;20163;-62
2023/01/04 20:52:42;;;;;;;21.70;3.95;;;11.80;99.90;;;;;;7301652;32;20130;-60
2023/01/04 20:56:43;;;;;;;19.80;3.30;;;11.80;99.90;;;;;;7297808;32;20107;-60
2023/01/04 21:00:46;;;;;;;20.58;3.80;;;11.80;99.90;;;;;;7302597;32;20261;-60
2023/01/04 21:04:48;;;;;;;26.50;4.90;;;11.80;99.90;;;;;;7305148;32;20832;-60
2023/01/04 21:08:53;;;;;;;21.48;4.03;;;11.80;99.90;;;;;;7292361;32;20134;-60
2023/01/04 21:12:55;;;;;;;24.12;4.10;;;11.80;99.90;;;;;;7292936;32;20226;-60
2023/01/04 21:16:56;;;;;;;22.05;3.60;;;11.70;99.90;;;;;;7295648;32;20243;-60
2023/01/04 21:21:04;;;;;;;27.65;4.32;;;11.80;99.90;;;;;;7285072;32;20298;-59
2023/01/04 21:25:06;;;;;;;26.95;3.55;;;11.70;99.90;;;;;;7290098;32;20104;-59
2023/01/04 21:29:07;;;;;;;22.83;3.60;;;11.70;99.90;;;;;;7275421;32;20141;-60
2023/01/04 21:33:10;;;;;;;21.10;3.87;;;11.70;99.90;;;;;;7289294;32;20164;-60
2023/01/04 21:37:12;;;;;;;21.58;3.78;;;11.70;99.90;;;;;;7286623;32;20167;-60
2023/01/04 21:41:14;;;;;;;26.83;3.33;;;11.70;99.90;;;;;;7289068;32;20227;-60
2023/01/04 21:45:16;;;;;;;23.83;3.85;;;11.70;99.90;;;;;;7293330;32;20182;-61
2023/01/04 21:49:18;;;;;;;21.55;3.10;;;11.70;99.90;;;;;;7291798;32;20483;-60
2023/01/04 21:53:19;;;;;;;26.12;4.12;;;11.70;99.90;;;;;;7298399;32;20226;-59
2023/01/04 21:57:21;;;;;;;15.73;3.33;;;11.70;99.90;;;;;;7265472;32;20189;-59
2023/01/04 22:01:25;;;;;;;28.95;4.03;;;11.70;99.90;;;;;;7295452;32;20174;-60
2023/01/04 22:05:35;;;;;;;22.42;3.53;;;11.70;99.90;;;;;;7295778;32;20218;-60
2023/01/04 22:09:37;;;;;;;24.42;4.35;;;11.70;99.90;;;;;;7291481;32;20112;-61
2023/01/04 22:13:39;;;;;;;20.45;4.68;;;11.60;99.90;;;;;;7292933;32;20264;-61